Time;durP1;ratioP1;P1;durP2;ratioP2;P2;SDS_P1;SDS_P2;PMS_P1;PMS_P2;Temp;Humidity;BMP_temperature;BMP_pressure;BME280_temperature;BME280_humidity;BME280_pressure;Samples;Min_cycle;Max_cycle;Signal;HPM_P1;HPM_P2
2023/01/18 00:01:08;;;;;;;53.43;26.33;;;1.90;99.90;;;;;;4974088;28;20198;-76
2023/01/18 00:03:37;;;;;;;54.10;25.97;;;1.90;99.90;;;;;;4965239;29;20635;-78
2023/01/18 00:06:07;;;;;;;53.33;26.63;;;2.00;99.90;;;;;;4958635;28;20288;-79
2023/01/18 00:08:35;;;;;;;59.20;27.37;;;1.90;99.90;;;;;;4961762;28;20198;-76
2023/01/18 00:11:04;;;;;;;53.07;27.27;;;1.90;99.90;;;;;;4962898;29;20190;-76
2023/01/18 00:13:32;;;;;;;52.10;26.57;;;2.00;99.90;;;;;;4966085;28;20223;-78
2023/01/18 00:16:17;;;;;;;59.03;28.23;;;2.00;99.90;;;;;;4958696;29;20202;-81
2023/01/18 00:18:49;;;;;;;55.93;27.63;;;2.00;99.90;;;;;;4973472;28;20194;-79
2023/01/18 00:21:16;;;;;;;65.30;28.50;;;2.00;99.90;;;;;;4957016;29;20226;-82
2023/01/18 00:23:43;;;;;;;53.23;27.20;;;2.00;99.90;;;;;;4956936;29;20714;-82
2023/01/18 00:26:11;;;;;;;59.70;26.97;;;2.00;99.90;;;;;;4973054;28;20206;-81
2023/01/18 00:28:39;;;;;;;61.37;28.40;;;2.00;99.90;;;;;;4957128;28;20597;-80
2023/01/18 00:31:19;;;;;;;54.20;27.03;;;2.00;99.90;;;;;;4957124;29;20230;-84
2023/01/18 00:33:48;;;;;;;54.83;27.23;;;2.10;99.90;;;;;;4958114;29;20197;-84
2023/01/18 00:36:17;;;;;;;55.77;27.30;;;2.10;99.90;;;;;;4962923;28;20232;-80
2023/01/18 00:38:54;;;;;;;54.23;26.90;;;2.10;99.90;;;;;;4960278;28;20189;-81
2023/01/18 00:41:21;;;;;;;51.07;25.77;;;2.10;99.90;;;;;;4960000;28;20277;-83
2023/01/18 00:43:50;;;;;;;53.20;26.27;;;2.10;99.90;;;;;;4960602;28;20264;-78
2023/01/18 00:46:26;;;;;;;61.00;28.13;;;2.10;99.90;;;;;;4976236;28;20285;-76
2023/01/18 00:48:54;;;;;;;55.83;26.43;;;2.10;99.90;;;;;;4961334;28;20193;-91
2023/01/18 00:51:23;;;;;;;61.03;26.50;;;2.10;99.90;;;;;;4965571;28;20219;-79
2023/01/18 00:53:50;;;;;;;56.97;26.63;;;2.10;99.90;;;;;;4962455;28;20228;-96
2023/01/18 00:56:20;;;;;;;57.17;26.63;;;2.10;99.90;;;;;;4976791;28;20244;-82
2023/01/18 00:58:48;;;;;;;57.37;27.20;;;2.10;99.90;;;;;;4977031;28;20223;-76
2023/01/18 01:01:15;;;;;;;49.70;25.97;;;2.00;99.90;;;;;;4959634;28;20249;-77
2023/01/18 01:06:43;;;;;;;52.07;25.00;;;2.10;99.90;;;;;;4975963;28;20198;-80
2023/01/18 01:09:19;;;;;;;51.77;25.87;;;2.10;99.90;;;;;;4975637;28;20637;-80
2023/01/18 01:26:06;;;;;;;49.47;23.73;;;2.00;99.90;;;;;;4959115;28;20198;-82
2023/01/18 01:28:42;;;;;;;48.23;23.20;;;2.10;99.90;;;;;;4959348;28;20531;-80
2023/01/18 01:31:13;;;;;;;48.60;23.63;;;2.10;99.90;;;;;;4959087;28;20215;-81
2023/01/18 01:33:40;;;;;;;46.37;23.67;;;2.20;99.90;;;;;;4958997;28;20228;-84
2023/01/18 01:36:13;;;;;;;51.33;24.83;;;2.20;99.90;;;;;;4974937;28;20240;-80
2023/01/18 01:38:41;;;;;;;47.83;23.60;;;2.30;99.90;;;;;;4976484;28;20197;-89
2023/01/18 01:41:32;;;;;;;50.70;24.27;;;2.30;99.90;;;;;;4959293;28;20199;-90
2023/01/18 01:44:03;;;;;;;44.90;22.27;;;2.40;99.90;;;;;;4919869;29;20333;-87
2023/01/18 01:46:51;;;;;;;49.33;23.30;;;2.30;99.90;;;;;;4935936;29;20209;-79
2023/01/18 01:49:31;;;;;;;48.63;22.67;;;2.30;99.90;;;;;;4935544;29;20688;-78
2023/01/18 01:52:33;;;;;;;46.60;22.63;;;2.40;99.90;;;;;;4920643;29;20233;-94
2023/01/18 01:55:27;;;;;;;46.80;22.17;;;2.40;99.90;;;;;;4898371;29;20203;-84
2023/01/18 01:57:57;;;;;;;45.97;22.10;;;2.40;99.90;;;;;;4879710;29;20204;-85
2023/01/18 02:00:28;;;;;;;46.67;22.00;;;2.40;99.90;;;;;;4898520;29;20560;-93
2023/01/18 02:02:57;;;;;;;47.77;22.40;;;2.50;99.90;;;;;;4898505;29;20216;-93
2023/01/18 02:05:27;;;;;;;46.17;21.13;;;2.50;99.90;;;;;;4897983;29;20234;-90
2023/01/18 02:07:59;;;;;;;45.67;22.13;;;2.50;99.90;;;;;;4897436;29;20216;-87
2023/01/18 02:10:30;;;;;;;46.23;21.60;;;2.50;99.90;;;;;;4897448;29;20199;-90
2023/01/18 02:12:59;;;;;;;46.47;21.27;;;2.50;99.90;;;;;;4882336;29;20208;-88
2023/01/18 02:16:05;;;;;;;43.17;20.37;;;2.50;99.90;;;;;;4897815;29;20200;-80
2023/01/18 02:18:44;;;;;;;41.43;20.50;;;2.50;99.90;;;;;;4898490;29;20278;-80
2023/01/18 02:21:20;;;;;;;41.33;19.50;;;2.50;99.90;;;;;;4872206;29;20204;-79
2023/01/18 02:24:19;;;;;;;45.63;20.60;;;2.50;99.90;;;;;;4862147;29;20231;-74
2023/01/18 02:26:55;;;;;;;38.67;19.47;;;2.50;99.90;;;;;;4862834;29;20204;-88
2023/01/18 02:29:28;;;;;;;40.93;19.73;;;2.50;99.90;;;;;;4878454;29;20201;-89
2023/01/18 02:32:18;;;;;;;41.47;19.17;;;2.50;99.90;;;;;;4934046;29;20245;-91
2023/01/18 02:35:04;;;;;;;36.93;17.87;;;2.50;99.90;;;;;;4862929;29;20236;-82
2023/01/18 02:37:48;;;;;;;40.10;18.00;;;2.50;99.90;;;;;;4849435;29;20318;-78
2023/01/18 02:40:15;;;;;;;37.47;18.13;;;2.50;99.90;;;;;;4860364;29;20576;-88
2023/01/18 02:48:23;;;;;;;33.97;16.87;;;2.50;99.90;;;;;;4844379;29;20596;-87
2023/01/18 02:50:50;;;;;;;33.10;16.53;;;2.50;99.90;;;;;;4859725;29;20214;-84
2023/01/18 02:53:18;;;;;;;35.00;17.53;;;2.50;99.90;;;;;;4844161;29;20248;-88
2023/01/18 02:56:00;;;;;;;37.93;17.37;;;2.50;99.90;;;;;;4828821;29;20223;-90
2023/01/18 02:58:44;;;;;;;36.77;17.30;;;2.50;99.90;;;;;;4859743;29;20217;-78
2023/01/18 03:01:45;;;;;;;37.07;17.03;;;2.50;99.90;;;;;;4859602;29;20189;-81
2023/01/18 03:04:31;;;;;;;35.20;16.57;;;2.60;99.90;;;;;;4851388;29;20268;-89
2023/01/18 03:07:11;;;;;;;32.67;15.77;;;2.60;99.90;;;;;;4859161;29;20240;-90
2023/01/18 03:09:41;;;;;;;32.10;16.50;;;2.60;99.90;;;;;;4843914;29;20206;-85
2023/01/18 03:12:44;;;;;;;34.67;16.37;;;2.60;99.90;;;;;;4891531;29;20207;-87
2023/01/18 03:15:26;;;;;;;32.23;15.47;;;2.60;99.90;;;;;;4919303;29;20203;-88
2023/01/18 03:18:04;;;;;;;32.43;16.17;;;2.60;99.90;;;;;;4935294;29;20249;-89
2023/01/18 03:20:35;;;;;;;32.37;16.07;;;2.70;99.90;;;;;;4919826;29;20203;-77
2023/01/18 03:26:18;;;;;;;35.43;16.73;;;2.70;99.90;;;;;;4936056;29;20558;-76
2023/01/18 03:34:34;;;;;;;33.30;15.90;;;2.70;99.90;;;;;;4936039;29;20259;-78
2023/01/18 03:37:12;;;;;;;34.93;17.20;;;2.80;99.90;;;;;;4944347;29;20245;-76
2023/01/18 03:39:54;;;;;;;33.70;15.93;;;2.80;99.90;;;;;;4953621;29;20237;-77
2023/01/18 03:42:26;;;;;;;37.23;16.57;;;2.80;99.90;;;;;;4953491;28;20203;-76
2023/01/18 03:45:21;;;;;;;32.70;15.97;;;2.80;99.90;;;;;;4937616;29;20317;-76
2023/01/18 03:47:49;;;;;;;33.60;16.40;;;2.80;99.90;;;;;;4920867;29;20273;-76
2023/01/18 03:50:24;;;;;;;35.40;17.07;;;2.80;99.90;;;;;;4956300;29;20273;-75
2023/01/18 03:52:57;;;;;;;35.37;15.83;;;2.90;99.90;;;;;;4942804;29;20206;-85
2023/01/18 03:55:33;;;;;;;34.73;16.70;;;2.80;99.90;;;;;;4955300;29;20174;-81
2023/01/18 03:58:14;;;;;;;36.53;16.67;;;2.90;99.90;;;;;;4938109;29;20285;-78
2023/01/18 04:00:41;;;;;;;32.93;16.03;;;2.90;99.90;;;;;;4954771;29;20200;-78
2023/01/18 04:03:08;;;;;;;32.57;15.50;;;2.90;99.90;;;;;;4954753;29;20190;-78
2023/01/18 04:05:36;;;;;;;33.90;15.43;;;3.00;99.90;;;;;;4954675;29;20300;-82
2023/01/18 04:08:03;;;;;;;33.30;16.07;;;2.90;99.90;;;;;;4953597;28;20194;-80
2023/01/18 04:10:30;;;;;;;37.10;16.37;;;2.90;99.90;;;;;;4953584;29;20241;-83
2023/01/18 04:12:57;;;;;;;33.37;16.07;;;2.90;99.90;;;;;;4937568;29;20275;-76
2023/01/18 04:15:33;;;;;;;39.23;16.47;;;2.90;99.90;;;;;;4953649;29;20659;-82
2023/01/18 04:18:01;;;;;;;35.63;15.77;;;2.90;99.90;;;;;;4961157;28;20187;-76
2023/01/18 04:20:28;;;;;;;34.87;15.27;;;2.90;99.90;;;;;;4973816;28;20190;-80
2023/01/18 04:22:56;;;;;;;36.20;16.03;;;2.90;99.90;;;;;;4974420;28;20228;-78
2023/01/18 04:25:23;;;;;;;37.13;16.13;;;2.90;99.90;;;;;;4976238;28;20258;-81
2023/01/18 04:27:50;;;;;;;36.53;15.93;;;2.90;99.90;;;;;;4976950;28;20661;-76
2023/01/18 04:33:40;;;;;;;35.07;16.37;;;3.00;99.90;;;;;;4956399;28;20249;-77
2023/01/18 04:36:08;;;;;;;37.13;15.90;;;3.00;99.90;;;;;;4972509;28;20679;-76
2023/01/18 04:38:35;;;;;;;37.17;16.53;;;2.90;99.90;;;;;;4972813;28;20256;-79
2023/01/18 04:41:05;;;;;;;36.50;15.73;;;3.00;99.90;;;;;;4956523;28;20194;-76
2023/01/18 04:43:32;;;;;;;33.27;14.03;;;2.90;99.90;;;;;;4956658;28;20225;-77
2023/01/18 04:46:00;;;;;;;38.40;15.20;;;3.00;99.90;;;;;;4956702;28;20744;-77
2023/01/18 04:48:27;;;;;;;37.00;15.53;;;3.00;99.90;;;;;;4959146;28;20219;-76
2023/01/18 04:51:01;;;;;;;34.53;15.13;;;3.00;99.90;;;;;;4960709;28;20201;-75
2023/01/18 04:53:29;;;;;;;36.90;16.17;;;3.00;99.90;;;;;;4959897;28;20197;-77
2023/01/18 04:55:57;;;;;;;34.10;14.50;;;3.10;99.90;;;;;;4976719;28;20598;-77
2023/01/18 04:58:24;;;;;;;35.03;15.10;;;3.10;99.90;;;;;;4975969;28;20204;-87
2023/01/18 05:00:51;;;;;;;34.23;15.37;;;3.20;99.90;;;;;;4960014;28;20262;-84
2023/01/18 05:03:18;;;;;;;34.33;14.67;;;3.10;99.90;;;;;;4976028;28;20201;-87
2023/01/18 05:05:45;;;;;;;34.40;15.60;;;3.10;99.90;;;;;;4976798;28;20630;-79
2023/01/18 05:08:12;;;;;;;35.23;14.73;;;3.10;99.90;;;;;;4959449;28;20627;-77
2023/01/18 05:10:39;;;;;;;35.77;14.27;;;3.10;99.90;;;;;;4975516;28;20288;-86
2023/01/18 05:13:06;;;;;;;34.50;14.97;;;3.10;99.90;;;;;;4975931;28;20206;-77
2023/01/18 05:15:33;;;;;;;36.50;14.70;;;3.10;99.90;;;;;;4977910;28;20202;-80
2023/01/18 05:18:01;;;;;;;32.63;14.27;;;3.10;99.90;;;;;;4959964;28;20271;-87
2023/01/18 05:20:28;;;;;;;33.20;14.60;;;3.10;99.90;;;;;;4959710;28;20202;-77
2023/01/18 05:22:55;;;;;;;33.47;14.57;;;3.10;99.90;;;;;;4976827;28;20249;-77
2023/01/18 05:25:22;;;;;;;37.00;14.97;;;3.10;99.90;;;;;;4959201;28;20249;-82
2023/01/18 05:27:50;;;;;;;37.60;15.17;;;3.10;99.90;;;;;;4979062;28;20225;-77
2023/01/18 05:30:19;;;;;;;36.87;14.47;;;3.10;99.90;;;;;;4983865;28;20213;-77
2023/01/18 05:32:46;;;;;;;34.17;14.23;;;3.10;99.90;;;;;;4979829;28;20197;-78
2023/01/18 05:35:13;;;;;;;36.13;14.80;;;3.10;99.90;;;;;;4979661;28;20199;-77
2023/01/18 05:37:40;;;;;;;37.77;14.70;;;3.20;99.90;;;;;;4962079;28;20234;-79
2023/01/18 05:40:11;;;;;;;38.87;15.07;;;3.10;99.90;;;;;;4978909;28;20342;-78
2023/01/18 05:42:41;;;;;;;34.13;15.00;;;3.10;99.90;;;;;;4959484;28;20209;-85
2023/01/18 05:45:10;;;;;;;34.53;14.80;;;3.10;99.90;;;;;;4974515;28;20241;-86
2023/01/18 05:47:39;;;;;;;38.57;15.13;;;3.00;99.90;;;;;;4975755;28;20200;-85
2023/01/18 05:50:21;;;;;;;36.77;15.70;;;3.00;99.90;;;;;;4975822;28;20281;-91
2023/01/18 05:52:57;;;;;;;34.73;15.07;;;3.00;99.90;;;;;;4974966;28;20189;-76
2023/01/18 05:55:29;;;;;;;39.00;14.97;;;2.90;99.90;;;;;;4975227;28;20348;-79
2023/01/18 05:57:59;;;;;;;35.10;14.63;;;2.90;99.90;;;;;;4976083;28;20253;-78
2023/01/18 06:00:38;;;;;;;35.30;14.70;;;2.90;99.90;;;;;;4957681;28;20628;-82
2023/01/18 06:03:06;;;;;;;32.33;14.47;;;2.70;99.90;;;;;;4976377;28;20201;-75
2023/01/18 06:05:36;;;;;;;34.67;13.77;;;2.80;99.90;;;;;;4975999;28;20225;-79
2023/01/18 06:08:04;;;;;;;38.23;13.73;;;2.60;99.90;;;;;;4975358;28;20632;-81
2023/01/18 06:10:31;;;;;;;34.23;13.33;;;2.70;99.90;;;;;;4974737;28;20203;-85
2023/01/18 06:12:58;;;;;;;34.13;12.50;;;2.60;99.90;;;;;;4958772;28;20670;-87
2023/01/18 06:15:25;;;;;;;34.93;12.80;;;2.60;99.90;;;;;;4982898;28;20204;-78
2023/01/18 06:18:06;;;;;;;34.40;13.93;;;2.60;99.90;;;;;;4963948;28;20229;-78
2023/01/18 06:20:41;;;;;;;27.13;11.80;;;2.60;99.90;;;;;;4980572;28;20211;-76
2023/01/18 06:23:09;;;;;;;28.37;12.23;;;2.60;99.90;;;;;;4975890;28;20568;-96
2023/01/18 06:25:37;;;;;;;32.23;12.47;;;2.60;99.90;;;;;;4975930;28;20210;-80
2023/01/18 06:28:05;;;;;;;29.40;11.97;;;2.70;99.90;;;;;;4975200;28;20285;-92
2023/01/18 06:30:33;;;;;;;29.00;11.07;;;2.70;99.90;;;;;;4958681;28;20202;-84
2023/01/18 06:33:05;;;;;;;30.30;11.87;;;2.60;99.90;;;;;;4974489;28;20204;-77
2023/01/18 06:35:37;;;;;;;32.63;12.00;;;2.60;99.90;;;;;;4976419;28;20194;-90
2023/01/18 06:38:04;;;;;;;27.33;11.33;;;2.60;99.90;;;;;;4958164;28;20240;-85
2023/01/18 06:40:31;;;;;;;28.67;11.87;;;2.60;99.90;;;;;;4958185;28;20220;-79
2023/01/18 06:42:58;;;;;;;30.20;11.00;;;2.60;99.90;;;;;;4957811;28;20200;-89
2023/01/18 06:45:28;;;;;;;26.17;10.87;;;2.70;99.90;;;;;;4975372;28;20229;-78
2023/01/18 06:47:55;;;;;;;21.50;10.03;;;2.60;99.90;;;;;;4974053;28;20204;-85
2023/01/18 06:50:22;;;;;;;22.37;10.10;;;2.70;99.90;;;;;;4973684;28;20190;-79
2023/01/18 06:52:50;;;;;;;22.93;9.97;;;2.60;99.90;;;;;;4974672;28;20587;-80
2023/01/18 06:55:20;;;;;;;20.73;9.03;;;2.70;99.90;;;;;;4984669;28;20275;-75
2023/01/18 06:57:47;;;;;;;21.60;9.13;;;2.70;99.90;;;;;;4989179;28;20701;-94
2023/01/18 07:00:16;;;;;;;22.53;10.27;;;2.70;99.90;;;;;;4964186;28;20228;-74
2023/01/18 07:02:57;;;;;;;24.10;9.77;;;2.70;99.90;;;;;;4968277;28;20704;-76
2023/01/18 07:05:41;;;;;;;22.60;9.13;;;2.70;99.90;;;;;;4975861;28;20201;-79
2023/01/18 07:08:08;;;;;;;19.43;8.63;;;2.70;99.90;;;;;;4974753;28;20201;-86
2023/01/18 07:10:35;;;;;;;18.70;8.77;;;2.80;99.90;;;;;;4941474;28;20235;-80
2023/01/18 07:13:02;;;;;;;23.83;8.63;;;2.70;99.90;;;;;;4957855;28;20209;-82
2023/01/18 07:15:29;;;;;;;22.47;8.70;;;2.80;99.90;;;;;;4974610;28;20205;-87
2023/01/18 07:17:56;;;;;;;24.17;8.70;;;2.80;99.90;;;;;;4976764;28;20195;-77
2023/01/18 07:20:37;;;;;;;17.93;7.90;;;2.70;99.90;;;;;;4982744;28;20260;-74
2023/01/18 07:23:06;;;;;;;17.17;7.80;;;2.70;99.90;;;;;;4959776;28;20225;-82
2023/01/18 07:25:33;;;;;;;36.53;9.83;;;2.80;99.90;;;;;;4973815;28;20252;-83
2023/01/18 07:28:03;;;;;;;16.27;7.33;;;2.70;99.90;;;;;;4944625;28;20208;-94
2023/01/18 07:30:30;;;;;;;18.63;7.70;;;2.70;99.90;;;;;;4958525;28;20201;-85
2023/01/18 07:32:57;;;;;;;27.30;8.77;;;2.70;99.90;;;;;;4982115;28;20197;-83
2023/01/18 07:35:26;;;;;;;14.77;7.10;;;2.70;99.90;;;;;;4992161;28;20210;-84
2023/01/18 07:37:53;;;;;;;17.93;6.63;;;2.70;99.90;;;;;;4974113;28;20632;-80
2023/01/18 07:40:20;;;;;;;15.40;7.23;;;2.60;99.90;;;;;;4957285;28;20628;-83
2023/01/18 07:42:48;;;;;;;14.47;6.83;;;2.70;99.90;;;;;;4950847;29;20208;-89
2023/01/18 07:45:15;;;;;;;12.53;6.63;;;2.70;99.90;;;;;;4959923;28;20694;-77
2023/01/18 07:47:44;;;;;;;18.13;7.20;;;2.70;99.90;;;;;;4952299;29;20226;-89
2023/01/18 07:50:13;;;;;;;14.20;6.47;;;2.70;99.90;;;;;;4954935;28;20590;-81
2023/01/18 07:52:40;;;;;;;16.57;7.33;;;2.60;99.90;;;;;;4969814;28;20278;-84
2023/01/18 07:55:07;;;;;;;12.63;6.23;;;2.60;99.90;;;;;;4969989;28;20198;-83
2023/01/18 07:57:34;;;;;;;12.97;6.10;;;2.60;99.90;;;;;;4969922;28;20218;-79
2023/01/18 08:00:01;;;;;;;14.23;6.40;;;2.60;99.90;;;;;;4953826;29;20211;-75
2023/01/18 08:02:28;;;;;;;13.40;6.60;;;2.70;99.90;;;;;;4953863;29;20239;-75
2023/01/18 08:04:55;;;;;;;12.43;6.00;;;2.70;99.90;;;;;;4953343;29;20202;-78
2023/01/18 08:07:22;;;;;;;11.70;5.90;;;2.60;99.90;;;;;;4954094;29;20666;-81
2023/01/18 08:09:49;;;;;;;12.97;5.80;;;2.70;99.90;;;;;;4969836;28;20198;-81
2023/01/18 08:12:17;;;;;;;11.77;5.90;;;2.60;99.90;;;;;;4954919;28;20198;-76
2023/01/18 08:14:44;;;;;;;12.43;5.93;;;2.60;99.90;;;;;;4953288;28;20313;-78
2023/01/18 08:17:11;;;;;;;11.50;5.60;;;2.70;99.90;;;;;;4969476;28;20221;-80
2023/01/18 08:19:38;;;;;;;9.53;5.13;;;2.70;99.90;;;;;;4953067;29;20229;-81
2023/01/18 08:22:06;;;;;;;10.27;5.10;;;2.70;99.90;;;;;;4969991;28;20202;-79
2023/01/18 08:24:33;;;;;;;11.60;5.03;;;2.70;99.90;;;;;;4957337;29;20214;-82
2023/01/18 08:27:00;;;;;;;9.30;4.63;;;2.70;99.90;;;;;;4972875;28;20329;-81
2023/01/18 08:29:27;;;;;;;8.80;4.70;;;2.70;99.90;;;;;;4973275;28;20198;-78
2023/01/18 08:31:54;;;;;;;7.80;4.13;;;2.70;99.90;;;;;;4973070;28;20213;-75
2023/01/18 08:34:21;;;;;;;9.67;4.60;;;2.70;99.90;;;;;;4973107;28;20202;-81
2023/01/18 08:36:49;;;;;;;8.33;4.43;;;2.70;99.90;;;;;;4974972;28;20232;-80
2023/01/18 08:39:16;;;;;;;9.20;4.57;;;2.60;99.90;;;;;;4979538;28;20550;-81
2023/01/18 08:41:45;;;;;;;9.43;4.80;;;2.70;99.90;;;;;;4995465;28;20198;-77
2023/01/18 08:44:12;;;;;;;8.70;4.47;;;2.70;99.90;;;;;;4978890;28;20224;-77
2023/01/18 08:46:39;;;;;;;8.17;4.30;;;2.70;99.90;;;;;;4995153;28;20213;-81
2023/01/18 08:49:06;;;;;;;8.33;4.60;;;2.70;99.90;;;;;;4996345;28;20193;-80
2023/01/18 08:51:33;;;;;;;8.60;4.33;;;2.70;99.90;;;;;;4979271;28;20263;-80
2023/01/18 08:54:00;;;;;;;7.73;4.47;;;2.70;99.90;;;;;;4995785;28;20195;-77
2023/01/18 08:56:27;;;;;;;8.63;4.20;;;2.80;99.90;;;;;;4978877;28;20575;-76
2023/01/18 08:58:54;;;;;;;8.87;3.93;;;2.80;99.90;;;;;;4978956;28;20702;-81
2023/01/18 09:01:22;;;;;;;8.57;4.03;;;2.80;99.90;;;;;;4978824;28;20209;-82
2023/01/18 09:03:52;;;;;;;7.13;3.90;;;2.80;99.90;;;;;;4994902;28;20213;-81
2023/01/18 09:06:19;;;;;;;8.23;3.97;;;2.80;99.90;;;;;;4994824;28;20635;-80
2023/01/18 09:08:47;;;;;;;5.77;3.37;;;2.80;99.90;;;;;;4996365;28;20256;-82
2023/01/18 09:11:15;;;;;;;6.10;3.30;;;2.90;99.90;;;;;;4979108;28;20221;-78
2023/01/18 09:13:43;;;;;;;5.70;3.30;;;2.80;99.90;;;;;;4994827;28;20575;-85
2023/01/18 09:16:25;;;;;;;6.03;3.47;;;2.80;99.90;;;;;;4996025;28;20197;-81
2023/01/18 09:18:54;;;;;;;6.83;3.50;;;2.80;99.90;;;;;;4995017;28;20189;-82
2023/01/18 09:21:22;;;;;;;6.07;3.70;;;2.80;99.90;;;;;;4994901;28;20714;-83
2023/01/18 09:23:49;;;;;;;5.43;3.30;;;2.90;99.90;;;;;;4995001;28;20186;-83
2023/01/18 09:26:19;;;;;;;5.40;3.30;;;2.80;99.90;;;;;;4994649;28;20271;-82
2023/01/18 09:28:49;;;;;;;5.60;3.50;;;2.90;99.90;;;;;;4996093;28;20192;-82
2023/01/18 09:31:18;;;;;;;5.67;3.33;;;2.90;99.90;;;;;;4994847;28;20196;-82
2023/01/18 09:33:45;;;;;;;5.77;3.60;;;2.90;99.90;;;;;;4978776;28;20203;-81
2023/01/18 09:36:24;;;;;;;4.70;3.20;;;2.90;99.90;;;;;;4998486;28;20328;-82
2023/01/18 09:38:52;;;;;;;5.80;3.67;;;2.90;99.90;;;;;;4986755;28;20213;-84
2023/01/18 09:41:31;;;;;;;4.60;3.27;;;2.90;99.90;;;;;;4977175;28;20603;-81
2023/01/18 09:44:15;;;;;;;6.37;3.70;;;2.90;99.90;;;;;;4985589;28;20587;-79
2023/01/18 09:46:48;;;;;;;5.80;3.63;;;3.00;99.90;;;;;;4995661;28;20233;-83
2023/01/18 09:49:24;;;;;;;6.03;3.70;;;2.90;99.90;;;;;;4991618;28;20550;-77
2023/01/18 09:52:04;;;;;;;5.77;3.63;;;2.90;99.90;;;;;;4974904;28;20205;-78
2023/01/18 09:54:47;;;;;;;5.00;3.60;;;2.90;99.90;;;;;;4991088;28;20205;-78
2023/01/18 09:57:38;;;;;;;5.10;3.50;;;3.00;99.90;;;;;;4975815;28;20559;-78
2023/01/18 10:00:29;;;;;;;4.93;3.43;;;3.00;99.90;;;;;;4990935;28;20194;-78
2023/01/18 10:03:17;;;;;;;5.43;3.47;;;3.00;99.90;;;;;;4975724;28;20186;-78
2023/01/18 10:06:07;;;;;;;6.87;3.70;;;3.00;99.90;;;;;;4990405;28;20210;-78
2023/01/18 10:08:55;;;;;;;5.93;3.50;;;3.00;99.90;;;;;;4990889;28;20209;-78
2023/01/18 10:11:33;;;;;;;6.33;3.63;;;3.00;99.90;;;;;;4974504;28;20297;-80
2023/01/18 10:14:02;;;;;;;5.70;3.60;;;3.00;99.90;;;;;;4990473;28;20651;-78
2023/01/18 10:16:31;;;;;;;5.10;3.70;;;3.00;99.90;;;;;;4990059;28;20208;-77
2023/01/18 10:19:00;;;;;;;5.77;3.87;;;3.00;99.90;;;;;;4973885;28;20573;-77
2023/01/18 10:21:43;;;;;;;5.33;4.03;;;3.00;99.90;;;;;;4973926;28;20201;-78
2023/01/18 10:24:20;;;;;;;6.43;3.83;;;3.00;99.90;;;;;;4990025;28;20629;-78
2023/01/18 10:26:51;;;;;;;4.80;3.40;;;3.00;99.90;;;;;;4973683;28;20588;-77
2023/01/18 10:29:24;;;;;;;6.33;4.00;;;3.00;99.90;;;;;;4990315;28;20201;-79
2023/01/18 10:32:03;;;;;;;6.07;4.07;;;3.00;99.90;;;;;;4990173;28;20197;-77
2023/01/18 10:34:35;;;;;;;5.67;4.27;;;3.00;99.90;;;;;;4973498;28;20206;-78
2023/01/18 10:37:16;;;;;;;6.27;4.00;;;3.00;99.90;;;;;;4973213;28;20321;-76
2023/01/18 10:40:00;;;;;;;7.83;4.47;;;3.00;99.90;;;;;;4975011;28;20267;-77
2023/01/18 10:42:43;;;;;;;5.80;4.27;;;2.90;99.90;;;;;;4989547;28;20256;-77
2023/01/18 10:45:19;;;;;;;7.87;4.33;;;2.90;99.90;;;;;;4973829;28;20563;-78
2023/01/18 10:47:50;;;;;;;7.50;4.40;;;2.90;99.90;;;;;;4974608;28;20255;-79
2023/01/18 10:50:33;;;;;;;8.47;4.73;;;2.90;99.90;;;;;;4973239;28;20288;-77
2023/01/18 10:53:18;;;;;;;6.03;4.33;;;2.90;99.90;;;;;;4974510;28;20556;-78
2023/01/18 10:56:11;;;;;;;8.73;4.83;;;3.00;99.90;;;;;;4974542;28;20228;-77
2023/01/18 10:58:54;;;;;;;6.47;4.73;;;3.00;99.90;;;;;;4974402;28;20195;-81
2023/01/18 11:01:32;;;;;;;8.07;4.87;;;3.00;99.90;;;;;;4989596;28;20209;-81
2023/01/18 11:04:19;;;;;;;7.80;4.93;;;3.00;99.90;;;;;;4973793;28;20198;-77
2023/01/18 11:06:54;;;;;;;9.07;5.30;;;3.00;99.90;;;;;;4974620;28;20213;-78
2023/01/18 11:09:33;;;;;;;9.03;5.30;;;3.10;99.90;;;;;;4989942;28;20678;-80
2023/01/18 11:12:33;;;;;;;7.17;5.13;;;3.10;99.90;;;;;;4989793;28;20204;-78
2023/01/18 11:15:12;;;;;;;9.27;5.60;;;3.00;99.90;;;;;;4989474;28;20674;-80
2023/01/18 11:17:41;;;;;;;9.97;5.90;;;3.00;99.90;;;;;;4989601;28;20197;-81
2023/01/18 11:20:20;;;;;;;8.83;5.60;;;3.10;99.90;;;;;;4974452;28;20388;-78
2023/01/18 11:23:03;;;;;;;9.87;5.97;;;3.10;99.90;;;;;;4973466;28;20228;-80
2023/01/18 11:25:44;;;;;;;10.33;6.30;;;3.10;99.90;;;;;;4989315;28;20193;-79
2023/01/18 11:28:34;;;;;;;8.70;5.87;;;3.00;99.90;;;;;;4973268;28;20256;-80
2023/01/18 11:31:14;;;;;;;10.77;6.17;;;3.10;99.90;;;;;;4933749;29;20301;-79
2023/01/18 11:33:58;;;;;;;11.00;6.57;;;3.20;99.90;;;;;;4918063;29;20209;-80
2023/01/18 11:36:40;;;;;;;9.70;6.60;;;3.20;99.90;;;;;;4933708;29;20278;-79
2023/01/18 11:39:26;;;;;;;10.03;6.43;;;3.20;99.90;;;;;;4917702;29;20216;-82
2023/01/18 11:42:12;;;;;;;9.97;6.07;;;3.20;99.90;;;;;;4918099;29;20338;-81
2023/01/18 11:44:48;;;;;;;9.97;6.10;;;3.20;99.90;;;;;;4933550;29;20243;-81
2023/01/18 11:48:00;;;;;;;11.00;6.30;;;3.30;99.90;;;;;;4933831;29;20223;-82
2023/01/18 11:50:46;;;;;;;7.80;5.50;;;3.20;99.90;;;;;;4880092;29;20223;-82
2023/01/18 11:53:43;;;;;;;7.57;5.37;;;3.20;99.90;;;;;;4880248;29;20613;-81
2023/01/18 11:56:28;;;;;;;8.83;5.57;;;3.20;99.90;;;;;;4880348;29;20204;-80
2023/01/18 11:58:56;;;;;;;7.97;5.33;;;3.20;99.90;;;;;;4899724;29;20750;-81
2023/01/18 12:01:34;;;;;;;8.77;5.03;;;3.20;99.90;;;;;;4899773;29;20356;-82
2023/01/18 12:04:22;;;;;;;7.07;4.97;;;3.20;99.90;;;;;;4883986;29;20200;-83
2023/01/18 12:07:09;;;;;;;8.10;4.90;;;3.20;99.90;;;;;;4883884;29;20239;-77
2023/01/18 12:10:09;;;;;;;7.57;5.00;;;3.20;99.90;;;;;;4899911;29;20256;-75
2023/01/18 12:12:54;;;;;;;5.93;4.57;;;3.20;99.90;;;;;;4862314;29;20201;-76
2023/01/18 12:15:47;;;;;;;5.97;4.43;;;3.20;99.90;;;;;;4846760;29;20220;-77
2023/01/18 12:18:43;;;;;;;6.80;4.30;;;3.20;99.90;;;;;;4861879;29;20244;-77
2023/01/18 12:21:11;;;;;;;5.73;4.07;;;3.20;99.90;;;;;;4846409;29;20219;-79
2023/01/18 12:24:04;;;;;;;6.53;4.20;;;3.20;99.90;;;;;;4861861;29;20202;-77
2023/01/18 12:26:56;;;;;;;8.07;4.27;;;3.30;99.90;;;;;;4845767;29;20289;-78
2023/01/18 12:30:08;;;;;;;5.37;4.10;;;3.20;99.90;;;;;;4861879;29;20231;-77
2023/01/18 12:32:47;;;;;;;5.10;3.70;;;3.20;99.90;;;;;;4862099;29;20209;-77
2023/01/18 12:35:37;;;;;;;5.33;4.00;;;3.20;99.90;;;;;;4861848;29;20213;-76
2023/01/18 12:38:26;;;;;;;6.50;3.67;;;3.10;99.90;;;;;;4876018;29;20685;-77
2023/01/18 12:41:15;;;;;;;5.07;3.57;;;3.20;99.90;;;;;;4848080;29;20301;-76
2023/01/18 12:44:06;;;;;;;5.60;3.53;;;3.20;99.90;;;;;;4846583;29;20774;-79
2023/01/18 12:46:43;;;;;;;5.03;3.63;;;3.20;99.90;;;;;;4845818;29;20243;-77
2023/01/18 12:49:17;;;;;;;4.33;3.23;;;3.20;99.90;;;;;;4874977;29;20204;-77
2023/01/18 12:51:49;;;;;;;5.17;3.70;;;3.20;99.90;;;;;;4883151;29;20246;-77
2023/01/18 12:54:25;;;;;;;4.67;3.10;;;3.20;99.90;;;;;;4898668;29;20580;-77
2023/01/18 12:56:56;;;;;;;4.50;3.50;;;3.10;99.90;;;;;;4898226;29;20234;-80
2023/01/18 12:59:31;;;;;;;5.70;3.70;;;3.10;99.90;;;;;;4882912;29;20204;-77
2023/01/18 13:02:10;;;;;;;5.20;3.90;;;3.10;99.90;;;;;;4898415;29;20296;-77
2023/01/18 13:05:16;;;;;;;5.97;4.33;;;3.10;99.90;;;;;;4947543;29;20349;-77
2023/01/18 13:07:54;;;;;;;7.23;4.30;;;3.00;99.90;;;;;;4965500;28;20289;-79
2023/01/18 13:10:25;;;;;;;7.50;4.50;;;3.00;99.90;;;;;;4956275;28;20295;-77
2023/01/18 13:12:54;;;;;;;6.37;4.20;;;2.90;99.90;;;;;;4956182;29;20230;-78
2023/01/18 13:15:39;;;;;;;6.23;4.30;;;2.80;99.90;;;;;;4957317;28;20206;-78
2023/01/18 13:18:25;;;;;;;6.60;4.87;;;2.80;99.90;;;;;;4957775;29;20218;-79
2023/01/18 13:21:15;;;;;;;6.17;4.73;;;2.70;99.90;;;;;;4956063;29;20208;-77
2023/01/18 13:24:17;;;;;;;6.03;4.30;;;2.60;99.90;;;;;;4957621;28;20692;-78
2023/01/18 13:26:44;;;;;;;6.60;4.67;;;2.60;99.90;;;;;;4955873;29;20241;-78
2023/01/18 13:29:21;;;;;;;7.13;5.10;;;2.60;99.90;;;;;;4956027;29;20273;-77
2023/01/18 13:31:49;;;;;;;7.80;5.30;;;2.60;99.90;;;;;;4955776;28;20209;-76
2023/01/18 13:34:29;;;;;;;8.27;5.50;;;2.60;99.90;;;;;;4957035;28;20232;-76
2023/01/18 13:36:57;;;;;;;9.67;6.40;;;2.50;99.90;;;;;;4975120;28;20221;-79
2023/01/18 13:39:46;;;;;;;9.13;6.30;;;2.40;99.90;;;;;;4994621;28;20232;-81
2023/01/18 13:42:13;;;;;;;10.93;6.77;;;2.50;99.90;;;;;;4994655;28;20281;-77
2023/01/18 13:44:43;;;;;;;12.23;7.30;;;2.50;99.90;;;;;;4978106;28;20216;-79
2023/01/18 13:47:35;;;;;;;10.50;7.23;;;2.50;99.90;;;;;;4994115;28;20248;-76
2023/01/18 13:50:04;;;;;;;10.57;7.07;;;2.40;99.90;;;;;;4994063;28;20251;-79
2023/01/18 13:52:34;;;;;;;10.57;7.27;;;2.30;99.90;;;;;;4994057;28;20552;-78
2023/01/18 13:55:30;;;;;;;12.77;7.90;;;2.30;99.90;;;;;;4994281;28;20701;-78
2023/01/18 13:57:57;;;;;;;13.23;7.30;;;2.20;99.90;;;;;;4976441;28;20316;-81